sensor_id;sensor_type;location;lat;lon;timestamp;temperature;humidity
18105;DHT22;9179;50.968;3.134;2023-02-18T00:02:14;23.80;89.60
18105;DHT22;9179;50.968;3.134;2023-02-18T00:04:41;23.80;89.70
18105;DHT22;9179;50.968;3.134;2023-02-18T00:07:08;23.80;89.70
18105;DHT22;9179;50.968;3.134;2023-02-18T00:09:35;23.70;89.60
18105;DHT22;9179;50.968;3.134;2023-02-18T00:12:03;23.70;89.60
18105;DHT22;9179;50.968;3.134;2023-02-18T00:14:30;23.70;89.70
18105;DHT22;9179;50.968;3.134;2023-02-18T00:16:57;23.70;89.70
18105;DHT22;9179;50.968;3.134;2023-02-18T00:19:26;23.70;89.80
18105;DHT22;9179;50.968;3.134;2023-02-18T00:21:52;23.60;89.80
18105;DHT22;9179;50.968;3.134;2023-02-18T00:24:19;23.70;89.80
18105;DHT22;9179;50.968;3.134;2023-02-18T00:26:49;23.60;89.80
18105;DHT22;9179;50.968;3.134;2023-02-18T00:29:16;23.60;89.90
18105;DHT22;9179;50.968;3.134;2023-02-18T00:31:43;23.60;89.80
18105;DHT22;9179;50.968;3.134;2023-02-18T00:34:12;23.50;89.80
18105;DHT22;9179;50.968;3.134;2023-02-18T00:36:40;23.50;89.80
18105;DHT22;9179;50.968;3.134;2023-02-18T00:39:09;23.50;89.80
18105;DHT22;9179;50.968;3.134;2023-02-18T00:41:36;23.50;89.80
18105;DHT22;9179;50.968;3.134;2023-02-18T00:44:04;23.50;89.80
18105;DHT22;9179;50.968;3.134;2023-02-18T00:46:31;23.50;89.90
18105;DHT22;9179;50.968;3.134;2023-02-18T00:48:58;23.40;89.90
18105;DHT22;9179;50.968;3.134;2023-02-18T00:51:25;23.40;89.90
18105;DHT22;9179;50.968;3.134;2023-02-18T00:53:54;23.40;89.90
18105;DHT22;9179;50.968;3.134;2023-02-18T00:56:21;23.40;89.90
18105;DHT22;9179;50.968;3.134;2023-02-18T00:58:48;23.30;89.80
18105;DHT22;9179;50.968;3.134;2023-02-18T01:01:15;23.30;89.90
18105;DHT22;9179;50.968;3.134;2023-02-18T01:03:42;23.30;89.90
18105;DHT22;9179;50.968;3.134;2023-02-18T01:06:10;23.30;89.90
18105;DHT22;9179;50.968;3.134;2023-02-18T01:08:38;23.30;90.00
18105;DHT22;9179;50.968;3.134;2023-02-18T01:11:08;23.30;90.00
18105;DHT22;9179;50.968;3.134;2023-02-18T01:13:36;23.30;90.00
18105;DHT22;9179;50.968;3.134;2023-02-18T01:16:03;23.30;90.00
18105;DHT22;9179;50.968;3.134;2023-02-18T01:18:30;23.30;89.90
18105;DHT22;9179;50.968;3.134;2023-02-18T01:20:57;23.30;89.90
18105;DHT22;9179;50.968;3.134;2023-02-18T01:23:24;23.20;89.80
18105;DHT22;9179;50.968;3.134;2023-02-18T01:25:51;23.20;90.00
18105;DHT22;9179;50.968;3.134;2023-02-18T01:28:20;23.20;90.00
18105;DHT22;9179;50.968;3.134;2023-02-18T01:30:49;23.20;90.00
18105;DHT22;9179;50.968;3.134;2023-02-18T01:33:16;23.20;89.90
18105;DHT22;9179;50.968;3.134;2023-02-18T01:35:44;23.20;89.90
18105;DHT22;9179;50.968;3.134;2023-02-18T01:38:10;23.20;90.00
18105;DHT22;9179;50.968;3.134;2023-02-18T01:40:45;23.10;89.90
18105;DHT22;9179;50.968;3.134;2023-02-18T01:43:14;23.10;90.00
18105;DHT22;9179;50.968;3.134;2023-02-18T01:45:56;23.10;90.00
18105;DHT22;9179;50.968;3.134;2023-02-18T01:48:26;23.00;90.00
18105;DHT22;9179;50.968;3.134;2023-02-18T01:50:57;23.00;90.00
18105;DHT22;9179;50.968;3.134;2023-02-18T01:53:27;23.10;90.00
18105;DHT22;9179;50.968;3.134;2023-02-18T01:55:56;23.00;90.00
18105;DHT22;9179;50.968;3.134;2023-02-18T01:58:24;23.00;90.00
18105;DHT22;9179;50.968;3.134;2023-02-18T02:00:52;23.00;90.00
18105;DHT22;9179;50.968;3.134;2023-02-18T02:03:19;23.00;90.00
18105;DHT22;9179;50.968;3.134;2023-02-18T02:05:46;23.00;90.00
18105;DHT22;9179;50.968;3.134;2023-02-18T02:08:13;22.90;90.00
18105;DHT22;9179;50.968;3.134;2023-02-18T02:11:01;22.90;90.00
18105;DHT22;9179;50.968;3.134;2023-02-18T02:13:42;22.90;90.00
18105;DHT22;9179;50.968;3.134;2023-02-18T02:16:20;22.90;90.00
18105;DHT22;9179;50.968;3.134;2023-02-18T02:18:59;22.90;90.00
18105;DHT22;9179;50.968;3.134;2023-02-18T02:21:57;22.90;90.00
18105;DHT22;9179;50.968;3.134;2023-02-18T02:24:53;22.90;90.00
18105;DHT22;9179;50.968;3.134;2023-02-18T02:27:24;22.90;90.00
18105;DHT22;9179;50.968;3.134;2023-02-18T02:30:30;22.80;90.00
18105;DHT22;9179;50.968;3.134;2023-02-18T02:33:49;22.80;90.00
18105;DHT22;9179;50.968;3.134;2023-02-18T02:36:28;22.80;90.00
18105;DHT22;9179;50.968;3.134;2023-02-18T02:39:02;22.80;89.90
18105;DHT22;9179;50.968;3.134;2023-02-18T02:41:44;22.80;90.00
18105;DHT22;9179;50.968;3.134;2023-02-18T02:44:22;22.70;90.00
18105;DHT22;9179;50.968;3.134;2023-02-18T02:46:55;22.70;90.00
18105;DHT22;9179;50.968;3.134;2023-02-18T02:49:33;22.70;90.00
18105;DHT22;9179;50.968;3.134;2023-02-18T02:52:09;22.70;90.00
18105;DHT22;9179;50.968;3.134;2023-02-18T02:54:37;22.70;90.00
18105;DHT22;9179;50.968;3.134;2023-02-18T02:57:07;22.70;90.00
18105;DHT22;9179;50.968;3.134;2023-02-18T02:59:36;22.60;90.00
18105;DHT22;9179;50.968;3.134;2023-02-18T03:02:20;22.70;90.00
18105;DHT22;9179;50.968;3.134;2023-02-18T03:05:02;22.60;90.00
18105;DHT22;9179;50.968;3.134;2023-02-18T03:07:58;22.60;90.00
18105;DHT22;9179;50.968;3.134;2023-02-18T03:10:42;22.60;90.00
18105;DHT22;9179;50.968;3.134;2023-02-18T03:13:17;22.50;90.00
18105;DHT22;9179;50.968;3.134;2023-02-18T03:15:54;22.50;90.10
18105;DHT22;9179;50.968;3.134;2023-02-18T03:18:25;22.50;90.10
18105;DHT22;9179;50.968;3.134;2023-02-18T03:20:57;22.50;90.00
18105;DHT22;9179;50.968;3.134;2023-02-18T03:23:33;22.50;90.00
18105;DHT22;9179;50.968;3.134;2023-02-18T03:26:03;22.50;90.10
18105;DHT22;9179;50.968;3.134;2023-02-18T03:28:32;22.50;90.10
18105;DHT22;9179;50.968;3.134;2023-02-18T03:31:02;22.50;90.10
18105;DHT22;9179;50.968;3.134;2023-02-18T03:33:35;22.50;90.10
18105;DHT22;9179;50.968;3.134;2023-02-18T03:36:03;22.50;90.10
18105;DHT22;9179;50.968;3.134;2023-02-18T03:38:35;22.40;90.00
18105;DHT22;9179;50.968;3.134;2023-02-18T03:41:04;22.40;90.10
18105;DHT22;9179;50.968;3.134;2023-02-18T03:43:31;22.40;90.10
18105;DHT22;9179;50.968;3.134;2023-02-18T03:45:59;22.40;90.10
18105;DHT22;9179;50.968;3.134;2023-02-18T03:48:26;22.40;90.10
18105;DHT22;9179;50.968;3.134;2023-02-18T03:50:53;22.30;90.10
18105;DHT22;9179;50.968;3.134;2023-02-18T03:53:20;22.30;90.20
18105;DHT22;9179;50.968;3.134;2023-02-18T03:55:48;22.40;90.20
18105;DHT22;9179;50.968;3.134;2023-02-18T03:58:15;22.30;90.20
18105;DHT22;9179;50.968;3.134;2023-02-18T04:00:42;22.30;90.20
18105;DHT22;9179;50.968;3.134;2023-02-18T04:03:09;22.30;90.30
18105;DHT22;9179;50.968;3.134;2023-02-18T04:05:36;22.30;90.40
18105;DHT22;9179;50.968;3.134;2023-02-18T04:08:03;22.30;90.80
18105;DHT22;9179;50.968;3.134;2023-02-18T04:10:30;22.50;91.00
18105;DHT22;9179;50.968;3.134;2023-02-18T04:12:59;22.70;91.20
18105;DHT22;9179;50.968;3.134;2023-02-18T04:15:27;23.10;91.30
18105;DHT22;9179;50.968;3.134;2023-02-18T04:17:54;23.40;91.30
18105;DHT22;9179;50.968;3.134;2023-02-18T04:20:21;23.70;91.20
18105;DHT22;9179;50.968;3.134;2023-02-18T04:22:48;24.10;91.10
18105;DHT22;9179;50.968;3.134;2023-02-18T04:25:15;24.40;90.80
18105;DHT22;9179;50.968;3.134;2023-02-18T04:27:42;24.70;90.60
18105;DHT22;9179;50.968;3.134;2023-02-18T04:30:11;24.80;90.40
18105;DHT22;9179;50.968;3.134;2023-02-18T04:32:38;24.90;90.30
18105;DHT22;9179;50.968;3.134;2023-02-18T04:35:05;25.00;90.30
18105;DHT22;9179;50.968;3.134;2023-02-18T04:37:32;25.00;90.20
18105;DHT22;9179;50.968;3.134;2023-02-18T04:39:59;25.00;90.10
18105;DHT22;9179;50.968;3.134;2023-02-18T04:42:26;25.10;90.00
18105;DHT22;9179;50.968;3.134;2023-02-18T04:44:53;25.10;89.90
18105;DHT22;9179;50.968;3.134;2023-02-18T04:47:21;25.20;89.70
18105;DHT22;9179;50.968;3.134;2023-02-18T04:49:48;25.10;89.30
18105;DHT22;9179;50.968;3.134;2023-02-18T04:52:15;25.20;89.30
18105;DHT22;9179;50.968;3.134;2023-02-18T04:54:42;25.20;89.20
18105;DHT22;9179;50.968;3.134;2023-02-18T04:57:10;25.20;89.00
18105;DHT22;9179;50.968;3.134;2023-02-18T04:59:37;25.20;88.90
18105;DHT22;9179;50.968;3.134;2023-02-18T05:02:04;25.10;88.70
18105;DHT22;9179;50.968;3.134;2023-02-18T05:04:32;25.10;88.60
18105;DHT22;9179;50.968;3.134;2023-02-18T05:06:59;25.10;88.40
18105;DHT22;9179;50.968;3.134;2023-02-18T05:09:26;25.10;88.30
18105;DHT22;9179;50.968;3.134;2023-02-18T05:11:53;25.10;88.30
18105;DHT22;9179;50.968;3.134;2023-02-18T05:14:20;25.10;88.10
18105;DHT22;9179;50.968;3.134;2023-02-18T05:16:47;25.10;88.10
18105;DHT22;9179;50.968;3.134;2023-02-18T05:19:15;25.10;88.00
18105;DHT22;9179;50.968;3.134;2023-02-18T05:21:43;25.00;88.00
18105;DHT22;9179;50.968;3.134;2023-02-18T05:24:10;25.00;88.00
18105;DHT22;9179;50.968;3.134;2023-02-18T05:26:37;25.00;87.80
18105;DHT22;9179;50.968;3.134;2023-02-18T05:29:04;25.00;87.90
18105;DHT22;9179;50.968;3.134;2023-02-18T05:31:31;24.90;87.80
18105;DHT22;9179;50.968;3.134;2023-02-18T05:33:58;24.90;87.90
18105;DHT22;9179;50.968;3.134;2023-02-18T05:36:25;24.80;87.80
18105;DHT22;9179;50.968;3.134;2023-02-18T05:38:54;24.70;87.80
18105;DHT22;9179;50.968;3.134;2023-02-18T05:41:21;24.70;87.80
18105;DHT22;9179;50.968;3.134;2023-02-18T05:43:47;24.70;88.00
18105;DHT22;9179;50.968;3.134;2023-02-18T05:46:32;24.60;88.00
18105;DHT22;9179;50.968;3.134;2023-02-18T05:48:59;24.50;88.10
18105;DHT22;9179;50.968;3.134;2023-02-18T05:51:26;24.50;88.10
18105;DHT22;9179;50.968;3.134;2023-02-18T05:53:54;24.50;88.10
18105;DHT22;9179;50.968;3.134;2023-02-18T05:56:21;24.40;88.20
18105;DHT22;9179;50.968;3.134;2023-02-18T05:58:48;24.40;88.30
18105;DHT22;9179;50.968;3.134;2023-02-18T06:01:15;24.30;88.30
18105;DHT22;9179;50.968;3.134;2023-02-18T06:03:42;24.30;88.60
18105;DHT22;9179;50.968;3.134;2023-02-18T06:06:09;24.30;88.80
18105;DHT22;9179;50.968;3.134;2023-02-18T06:08:36;24.30;90.00
18105;DHT22;9179;50.968;3.134;2023-02-18T06:11:04;24.30;89.30
18105;DHT22;9179;50.968;3.134;2023-02-18T06:13:31;24.40;89.00
18105;DHT22;9179;50.968;3.134;2023-02-18T06:15:58;24.60;88.70
18105;DHT22;9179;50.968;3.134;2023-02-18T06:18:25;24.70;88.40
18105;DHT22;9179;50.968;3.134;2023-02-18T06:20:52;24.90;88.10
18105;DHT22;9179;50.968;3.134;2023-02-18T06:23:19;25.00;87.70
18105;DHT22;9179;50.968;3.134;2023-02-18T06:25:48;25.20;87.60
18105;DHT22;9179;50.968;3.134;2023-02-18T06:28:16;25.30;87.40
18105;DHT22;9179;50.968;3.134;2023-02-18T06:30:44;25.30;87.90
18105;DHT22;9179;50.968;3.134;2023-02-18T06:33:11;25.40;86.80
18105;DHT22;9179;50.968;3.134;2023-02-18T06:35:38;25.50;86.60
18105;DHT22;9179;50.968;3.134;2023-02-18T06:38:05;25.60;86.30
18105;DHT22;9179;50.968;3.134;2023-02-18T06:40:32;25.70;86.20
18105;DHT22;9179;50.968;3.134;2023-02-18T06:42:59;25.60;86.00
18105;DHT22;9179;50.968;3.134;2023-02-18T06:45:27;25.70;86.10
18105;DHT22;9179;50.968;3.134;2023-02-18T06:47:54;25.70;86.20
18105;DHT22;9179;50.968;3.134;2023-02-18T06:50:21;25.80;86.20
18105;DHT22;9179;50.968;3.134;2023-02-18T06:52:48;25.90;86.10
18105;DHT22;9179;50.968;3.134;2023-02-18T06:55:15;26.00;85.70
18105;DHT22;9179;50.968;3.134;2023-02-18T06:57:41;26.10;85.60
18105;DHT22;9179;50.968;3.134;2023-02-18T07:00:09;26.30;85.40
18105;DHT22;9179;50.968;3.134;2023-02-18T07:02:37;26.40;85.10
18105;DHT22;9179;50.968;3.134;2023-02-18T07:05:05;26.50;84.80
18105;DHT22;9179;50.968;3.134;2023-02-18T07:07:32;26.60;84.50
18105;DHT22;9179;50.968;3.134;2023-02-18T07:09:59;26.60;84.40
18105;DHT22;9179;50.968;3.134;2023-02-18T07:12:26;26.60;84.20
18105;DHT22;9179;50.968;3.134;2023-02-18T07:14:53;26.70;84.10
18105;DHT22;9179;50.968;3.134;2023-02-18T07:17:20;26.70;84.00
18105;DHT22;9179;50.968;3.134;2023-02-18T07:19:48;26.70;84.00
18105;DHT22;9179;50.968;3.134;2023-02-18T07:22:15;26.70;84.00
18105;DHT22;9179;50.968;3.134;2023-02-18T07:24:42;26.70;84.00
18105;DHT22;9179;50.968;3.134;2023-02-18T07:27:09;26.70;83.20
18105;DHT22;9179;50.968;3.134;2023-02-18T07:29:36;26.70;83.00
18105;DHT22;9179;50.968;3.134;2023-02-18T07:32:04;26.60;83.10
18105;DHT22;9179;50.968;3.134;2023-02-18T07:34:31;26.60;83.20
18105;DHT22;9179;50.968;3.134;2023-02-18T07:36:59;26.60;83.10
18105;DHT22;9179;50.968;3.134;2023-02-18T07:39:26;26.60;83.10
18105;DHT22;9179;50.968;3.134;2023-02-18T07:41:53;26.50;82.80
18105;DHT22;9179;50.968;3.134;2023-02-18T07:44:20;26.50;83.00
18105;DHT22;9179;50.968;3.134;2023-02-18T07:46:47;26.50;83.00
18105;DHT22;9179;50.968;3.134;2023-02-18T07:49:14;26.40;83.00
18105;DHT22;9179;50.968;3.134;2023-02-18T07:51:41;26.30;83.10
18105;DHT22;9179;50.968;3.134;2023-02-18T07:54:09;26.30;83.20
18105;DHT22;9179;50.968;3.134;2023-02-18T07:56:36;26.30;83.60
18105;DHT22;9179;50.968;3.134;2023-02-18T07:59:03;26.20;83.60
18105;DHT22;9179;50.968;3.134;2023-02-18T08:01:30;26.20;83.60
18105;DHT22;9179;50.968;3.134;2023-02-18T08:03:57;26.10;83.80
18105;DHT22;9179;50.968;3.134;2023-02-18T08:06:27;26.10;83.80
18105;DHT22;9179;50.968;3.134;2023-02-18T08:08:54;26.10;83.30
18105;DHT22;9179;50.968;3.134;2023-02-18T08:11:23;26.00;83.10
18105;DHT22;9179;50.968;3.134;2023-02-18T08:13:50;25.90;83.10
18105;DHT22;9179;50.968;3.134;2023-02-18T08:16:18;25.90;83.20
18105;DHT22;9179;50.968;3.134;2023-02-18T08:18:45;25.90;83.10
18105;DHT22;9179;50.968;3.134;2023-02-18T08:21:13;25.80;83.10
18105;DHT22;9179;50.968;3.134;2023-02-18T08:23:40;25.80;83.10
18105;DHT22;9179;50.968;3.134;2023-02-18T08:26:08;25.70;83.20
18105;DHT22;9179;50.968;3.134;2023-02-18T08:28:36;25.60;83.80
18105;DHT22;9179;50.968;3.134;2023-02-18T08:31:03;25.50;83.90
18105;DHT22;9179;50.968;3.134;2023-02-18T08:33:30;25.50;84.10
18105;DHT22;9179;50.968;3.134;2023-02-18T08:35:58;25.50;84.60
18105;DHT22;9179;50.968;3.134;2023-02-18T08:38:25;25.50;85.00
18105;DHT22;9179;50.968;3.134;2023-02-18T08:41:01;25.40;85.20
18105;DHT22;9179;50.968;3.134;2023-02-18T08:43:28;25.40;85.80
18105;DHT22;9179;50.968;3.134;2023-02-18T08:45:58;25.30;85.60
18105;DHT22;9179;50.968;3.134;2023-02-18T08:48:26;25.30;86.00
18105;DHT22;9179;50.968;3.134;2023-02-18T08:50:53;25.20;85.80
18105;DHT22;9179;50.968;3.134;2023-02-18T08:53:20;25.30;85.80
18105;DHT22;9179;50.968;3.134;2023-02-18T08:55:47;25.20;85.40
18105;DHT22;9179;50.968;3.134;2023-02-18T08:58:14;25.10;83.90
18105;DHT22;9179;50.968;3.134;2023-02-18T09:00:43;25.00;83.60
18105;DHT22;9179;50.968;3.134;2023-02-18T09:03:13;25.00;83.80
18105;DHT22;9179;50.968;3.134;2023-02-18T09:05:40;25.00;83.90
18105;DHT22;9179;50.968;3.134;2023-02-18T09:08:07;24.90;83.90
18105;DHT22;9179;50.968;3.134;2023-02-18T09:10:34;24.90;84.10
18105;DHT22;9179;50.968;3.134;2023-02-18T09:13:01;24.80;84.20
18105;DHT22;9179;50.968;3.134;2023-02-18T09:15:28;24.80;84.40
18105;DHT22;9179;50.968;3.134;2023-02-18T09:17:56;24.70;84.70
18105;DHT22;9179;50.968;3.134;2023-02-18T09:20:25;24.70;85.90
18105;DHT22;9179;50.968;3.134;2023-02-18T09:22:52;24.70;85.00
18105;DHT22;9179;50.968;3.134;2023-02-18T09:25:19;24.70;85.00
18105;DHT22;9179;50.968;3.134;2023-02-18T09:27:47;24.70;85.20
18105;DHT22;9179;50.968;3.134;2023-02-18T09:30:14;24.60;85.30
18105;DHT22;9179;50.968;3.134;2023-02-18T09:32:42;24.60;85.50
18105;DHT22;9179;50.968;3.134;2023-02-18T09:35:09;24.50;85.70
18105;DHT22;9179;50.968;3.134;2023-02-18T09:37:37;24.50;86.00
18105;DHT22;9179;50.968;3.134;2023-02-18T09:40:06;24.50;86.30
18105;DHT22;9179;50.968;3.134;2023-02-18T09:42:34;24.50;86.30
18105;DHT22;9179;50.968;3.134;2023-02-18T09:45:03;24.50;86.30
18105;DHT22;9179;50.968;3.134;2023-02-18T09:47:34;24.50;86.50
18105;DHT22;9179;50.968;3.134;2023-02-18T09:50:05;24.40;86.50
18105;DHT22;9179;50.968;3.134;2023-02-18T09:52:35;24.50;86.70
18105;DHT22;9179;50.968;3.134;2023-02-18T09:55:16;24.50;86.70
18105;DHT22;9179;50.968;3.134;2023-02-18T09:57:46;24.50;87.00
18105;DHT22;9179;50.968;3.134;2023-02-18T10:00:18;24.50;87.00
18105;DHT22;9179;50.968;3.134;2023-02-18T10:02:52;24.50;87.20
18105;DHT22;9179;50.968;3.134;2023-02-18T10:05:20;24.50;87.40
18105;DHT22;9179;50.968;3.134;2023-02-18T10:07:48;24.50;87.60
18105;DHT22;9179;50.968;3.134;2023-02-18T10:10:23;24.50;87.80
18105;DHT22;9179;50.968;3.134;2023-02-18T10:12:51;24.40;88.00
18105;DHT22;9179;50.968;3.134;2023-02-18T10:15:22;24.40;88.00
18105;DHT22;9179;50.968;3.134;2023-02-18T10:17:50;24.40;88.10
18105;DHT22;9179;50.968;3.134;2023-02-18T10:20:23;24.40;88.30
18105;DHT22;9179;50.968;3.134;2023-02-18T10:22:52;24.40;88.40
18105;DHT22;9179;50.968;3.134;2023-02-18T10:25:22;24.30;88.50
18105;DHT22;9179;50.968;3.134;2023-02-18T10:27:52;24.30;88.60
18105;DHT22;9179;50.968;3.134;2023-02-18T10:30:23;24.30;88.80
18105;DHT22;9179;50.968;3.134;2023-02-18T10:32:56;24.30;88.90
18105;DHT22;9179;50.968;3.134;2023-02-18T10:35:32;24.30;88.90
18105;DHT22;9179;50.968;3.134;2023-02-18T10:38:05;24.30;89.00
18105;DHT22;9179;50.968;3.134;2023-02-18T10:40:45;24.30;88.90
18105;DHT22;9179;50.968;3.134;2023-02-18T10:43:22;24.30;88.90
18105;DHT22;9179;50.968;3.134;2023-02-18T10:45:56;24.20;88.80
18105;DHT22;9179;50.968;3.134;2023-02-18T10:48:44;24.20;88.70
18105;DHT22;9179;50.968;3.134;2023-02-18T10:51:19;24.10;88.60
18105;DHT22;9179;50.968;3.134;2023-02-18T10:53:49;24.20;88.60
18105;DHT22;9179;50.968;3.134;2023-02-18T10:56:38;24.30;88.10
18105;DHT22;9179;50.968;3.134;2023-02-18T10:59:11;24.50;88.10
18105;DHT22;9179;50.968;3.134;2023-02-18T11:01:40;24.70;86.50
18105;DHT22;9179;50.968;3.134;2023-02-18T11:04:12;25.00;85.50
18105;DHT22;9179;50.968;3.134;2023-02-18T11:06:42;25.20;84.90
18105;DHT22;9179;50.968;3.134;2023-02-18T11:09:28;25.50;84.50
18105;DHT22;9179;50.968;3.134;2023-02-18T11:12:05;25.80;83.90
18105;DHT22;9179;50.968;3.134;2023-02-18T11:14:37;26.00;83.40
18105;DHT22;9179;50.968;3.134;2023-02-18T11:17:15;26.20;83.00
18105;DHT22;9179;50.968;3.134;2023-02-18T11:19:42;26.40;82.60
18105;DHT22;9179;50.968;3.134;2023-02-18T11:22:15;26.50;82.40
18105;DHT22;9179;50.968;3.134;2023-02-18T11:24:44;26.60;81.90
18105;DHT22;9179;50.968;3.134;2023-02-18T11:27:22;26.70;81.90
18105;DHT22;9179;50.968;3.134;2023-02-18T11:29:51;26.70;81.40
18105;DHT22;9179;50.968;3.134;2023-02-18T11:32:20;26.80;81.50
18105;DHT22;9179;50.968;3.134;2023-02-18T11:34:48;26.80;81.30
18105;DHT22;9179;50.968;3.134;2023-02-18T11:37:18;26.80;81.10
18105;DHT22;9179;50.968;3.134;2023-02-18T11:39:47;26.80;81.30
18105;DHT22;9179;50.968;3.134;2023-02-18T11:42:19;26.90;81.80
18105;DHT22;9179;50.968;3.134;2023-02-18T11:44:51;26.90;81.90
18105;DHT22;9179;50.968;3.134;2023-02-18T11:47:22;26.90;81.90
18105;DHT22;9179;50.968;3.134;2023-02-18T11:50:05;26.90;81.90
18105;DHT22;9179;50.968;3.134;2023-02-18T11:52:40;26.90;82.10
18105;DHT22;9179;50.968;3.134;2023-02-18T11:55:15;26.90;82.10
18105;DHT22;9179;50.968;3.134;2023-02-18T11:57:47;26.90;81.90
18105;DHT22;9179;50.968;3.134;2023-02-18T12:00:20;26.90;81.90
18105;DHT22;9179;50.968;3.134;2023-02-18T12:02:49;26.80;81.90
18105;DHT22;9179;50.968;3.134;2023-02-18T12:05:20;26.80;82.00
18105;DHT22;9179;50.968;3.134;2023-02-18T12:07:49;26.80;81.90
18105;DHT22;9179;50.968;3.134;2023-02-18T12:10:22;26.80;81.90
18105;DHT22;9179;50.968;3.134;2023-02-18T12:12:56;26.70;82.00
18105;DHT22;9179;50.968;3.134;2023-02-18T12:15:33;26.70;82.80
18105;DHT22;9179;50.968;3.134;2023-02-18T12:21:17;26.60;82.10
18105;DHT22;9179;50.968;3.134;2023-02-18T12:23:55;26.60;82.20
18105;DHT22;9179;50.968;3.134;2023-02-18T12:26:27;26.50;82.20
18105;DHT22;9179;50.968;3.134;2023-02-18T12:29:13;26.50;82.30
18105;DHT22;9179;50.968;3.134;2023-02-18T12:31:57;26.50;82.70
18105;DHT22;9179;50.968;3.134;2023-02-18T12:34:46;26.40;82.80
18105;DHT22;9179;50.968;3.134;2023-02-18T12:37:37;26.40;82.80
18105;DHT22;9179;50.968;3.134;2023-02-18T12:40:24;26.40;82.80
18105;DHT22;9179;50.968;3.134;2023-02-18T12:43:03;26.50;82.70
18105;DHT22;9179;50.968;3.134;2023-02-18T12:45:44;26.60;81.80
18105;DHT22;9179;50.968;3.134;2023-02-18T12:48:35;26.80;81.40
18105;DHT22;9179;50.968;3.134;2023-02-18T12:51:10;26.90;80.90
18105;DHT22;9179;50.968;3.134;2023-02-18T12:56:39;27.20;80.90
18105;DHT22;9179;50.968;3.134;2023-02-18T12:59:22;27.20;80.70
18105;DHT22;9179;50.968;3.134;2023-02-18T13:02:00;27.30;80.40
18105;DHT22;9179;50.968;3.134;2023-02-18T13:04:43;27.50;80.30
18105;DHT22;9179;50.968;3.134;2023-02-18T13:07:51;27.50;80.00
18105;DHT22;9179;50.968;3.134;2023-02-18T13:10:46;27.60;79.80
18105;DHT22;9179;50.968;3.134;2023-02-18T13:13:19;27.60;79.40
18105;DHT22;9179;50.968;3.134;2023-02-18T13:15:50;27.70;79.30
18105;DHT22;9179;50.968;3.134;2023-02-18T13:18:21;27.70;79.20
18105;DHT22;9179;50.968;3.134;2023-02-18T13:20:52;27.70;79.10
18105;DHT22;9179;50.968;3.134;2023-02-18T13:23:22;27.70;79.00
18105;DHT22;9179;50.968;3.134;2023-02-18T13:25:55;27.70;78.90
18105;DHT22;9179;50.968;3.134;2023-02-18T13:28:28;27.70;78.80
18105;DHT22;9179;50.968;3.134;2023-02-18T13:31:09;27.70;78.90
18105;DHT22;9179;50.968;3.134;2023-02-18T13:33:45;27.60;78.70
18105;DHT22;9179;50.968;3.134;2023-02-18T13:36:21;27.60;78.80
18105;DHT22;9179;50.968;3.134;2023-02-18T13:39:02;27.50;79.00
18105;DHT22;9179;50.968;3.134;2023-02-18T13:41:34;27.50;80.30
18105;DHT22;9179;50.968;3.134;2023-02-18T13:44:07;27.40;79.50
18105;DHT22;9179;50.968;3.134;2023-02-18T13:46:47;27.40;79.80
18105;DHT22;9179;50.968;3.134;2023-02-18T13:49:18;27.40;80.00
18105;DHT22;9179;50.968;3.134;2023-02-18T13:51:49;27.30;79.60
18105;DHT22;9179;50.968;3.134;2023-02-18T13:54:21;27.30;79.60
18105;DHT22;9179;50.968;3.134;2023-02-18T13:56:51;27.30;79.60
18105;DHT22;9179;50.968;3.134;2023-02-18T13:59:32;27.30;79.90
18105;DHT22;9179;50.968;3.134;2023-02-18T14:04:52;27.20;80.10
18105;DHT22;9179;50.968;3.134;2023-02-18T14:07:26;27.00;80.10
18105;DHT22;9179;50.968;3.134;2023-02-18T14:09:57;27.00;80.30
18105;DHT22;9179;50.968;3.134;2023-02-18T14:12:39;26.90;80.30
18105;DHT22;9179;50.968;3.134;2023-02-18T14:15:45;26.80;80.40
18105;DHT22;9179;50.968;3.134;2023-02-18T14:18:28;26.80;80.60
18105;DHT22;9179;50.968;3.134;2023-02-18T14:21:18;26.80;80.80
18105;DHT22;9179;50.968;3.134;2023-02-18T14:23:59;26.80;80.80
18105;DHT22;9179;50.968;3.134;2023-02-18T14:26:35;26.80;80.50
18105;DHT22;9179;50.968;3.134;2023-02-18T14:29:16;26.80;80.40
18105;DHT22;9179;50.968;3.134;2023-02-18T14:31:50;26.80;81.20
18105;DHT22;9179;50.968;3.134;2023-02-18T14:34:43;26.70;80.30
18105;DHT22;9179;50.968;3.134;2023-02-18T14:37:43;26.70;80.40
18105;DHT22;9179;50.968;3.134;2023-02-18T14:40:25;26.60;80.40
18105;DHT22;9179;50.968;3.134;2023-02-18T14:43:01;26.60;80.40
18105;DHT22;9179;50.968;3.134;2023-02-18T14:46:01;26.50;80.40
18105;DHT22;9179;50.968;3.134;2023-02-18T14:48:47;26.50;80.50
18105;DHT22;9179;50.968;3.134;2023-02-18T14:51:20;26.50;80.50
18105;DHT22;9179;50.968;3.134;2023-02-18T14:53:50;26.40;80.50
18105;DHT22;9179;50.968;3.134;2023-02-18T14:56:19;26.40;80.50
18105;DHT22;9179;50.968;3.134;2023-02-18T14:58:48;26.40;80.50
18105;DHT22;9179;50.968;3.134;2023-02-18T15:01:18;26.30;80.50
18105;DHT22;9179;50.968;3.134;2023-02-18T15:03:48;26.30;80.60
18105;DHT22;9179;50.968;3.134;2023-02-18T15:06:23;26.30;80.60
18105;DHT22;9179;50.968;3.134;2023-02-18T15:08:51;26.20;80.60
18105;DHT22;9179;50.968;3.134;2023-02-18T15:11:20;26.20;80.50
18105;DHT22;9179;50.968;3.134;2023-02-18T15:13:52;26.20;80.70
18105;DHT22;9179;50.968;3.134;2023-02-18T15:16:23;26.10;80.70
18105;DHT22;9179;50.968;3.134;2023-02-18T15:18:53;26.00;80.80
18105;DHT22;9179;50.968;3.134;2023-02-18T15:21:26;26.00;80.90
18105;DHT22;9179;50.968;3.134;2023-02-18T15:24:01;25.90;80.90
18105;DHT22;9179;50.968;3.134;2023-02-18T15:26:31;25.90;81.00
18105;DHT22;9179;50.968;3.134;2023-02-18T15:28:59;25.80;81.00
18105;DHT22;9179;50.968;3.134;2023-02-18T15:31:28;25.70;81.10
18105;DHT22;9179;50.968;3.134;2023-02-18T15:33:55;25.70;81.30
18105;DHT22;9179;50.968;3.134;2023-02-18T15:36:24;25.60;81.30
18105;DHT22;9179;50.968;3.134;2023-02-18T15:38:52;25.60;81.40
18105;DHT22;9179;50.968;3.134;2023-02-18T15:41:21;25.60;81.60
18105;DHT22;9179;50.968;3.134;2023-02-18T15:43:53;25.50;81.70
18105;DHT22;9179;50.968;3.134;2023-02-18T15:46:21;25.50;81.80
18105;DHT22;9179;50.968;3.134;2023-02-18T15:48:51;25.40;81.80
18105;DHT22;9179;50.968;3.134;2023-02-18T15:51:24;25.30;81.80
18105;DHT22;9179;50.968;3.134;2023-02-18T15:53:54;25.30;82.00
18105;DHT22;9179;50.968;3.134;2023-02-18T15:56:29;25.30;82.00
18105;DHT22;9179;50.968;3.134;2023-02-18T15:59:08;25.20;82.20
18105;DHT22;9179;50.968;3.134;2023-02-18T16:01:35;25.20;82.30
18105;DHT22;9179;50.968;3.134;2023-02-18T16:04:05;25.10;82.40
18105;DHT22;9179;50.968;3.134;2023-02-18T16:06:36;25.00;82.40
18105;DHT22;9179;50.968;3.134;2023-02-18T16:09:12;25.00;82.50
18105;DHT22;9179;50.968;3.134;2023-02-18T16:11:44;25.00;82.70
18105;DHT22;9179;50.968;3.134;2023-02-18T16:14:27;24.90;82.70
18105;DHT22;9179;50.968;3.134;2023-02-18T16:17:13;24.90;82.90
18105;DHT22;9179;50.968;3.134;2023-02-18T16:19:47;24.80;83.00
18105;DHT22;9179;50.968;3.134;2023-02-18T16:22:24;24.80;83.10